sensor_id;sensor_type;location;lat;lon;timestamp;P1;durP1;ratioP1;P2;durP2;ratioP2
62401;SDS011;48440;51.224;22.506;2023-08-20T00:00:27;12.15;;;10.73;;
62401;SDS011;48440;51.224;22.506;2023-08-20T00:02:55;17.85;;;11.75;;
62401;SDS011;48440;51.224;22.506;2023-08-20T00:05:28;13.05;;;11.75;;
62401;SDS011;48440;51.224;22.506;2023-08-20T00:07:53;13.30;;;10.63;;
62401;SDS011;48440;51.224;22.506;2023-08-20T00:10:19;13.80;;;10.65;;
62401;SDS011;48440;51.224;22.506;2023-08-20T00:12:44;12.18;;;10.90;;
62401;SDS011;48440;51.224;22.506;2023-08-20T00:15:10;13.93;;;11.02;;
62401;SDS011;48440;51.224;22.506;2023-08-20T00:17:36;15.13;;;11.63;;
62401;SDS011;48440;51.224;22.506;2023-08-20T00:20:04;12.48;;;11.18;;
62401;SDS011;48440;51.224;22.506;2023-08-20T00:22:35;12.57;;;11.27;;
62401;SDS011;48440;51.224;22.506;2023-08-20T00:25:01;13.00;;;11.35;;
62401;SDS011;48440;51.224;22.506;2023-08-20T00:27:28;12.05;;;10.77;;
62401;SDS011;48440;51.224;22.506;2023-08-20T00:29:53;12.48;;;10.65;;
62401;SDS011;48440;51.224;22.506;2023-08-20T00:32:19;12.75;;;11.13;;
62401;SDS011;48440;51.224;22.506;2023-08-20T00:34:44;16.55;;;10.93;;
62401;SDS011;48440;51.224;22.506;2023-08-20T00:37:10;14.30;;;11.38;;
62401;SDS011;48440;51.224;22.506;2023-08-20T00:39:35;12.77;;;10.95;;
62401;SDS011;48440;51.224;22.506;2023-08-20T00:42:00;13.00;;;11.43;;
62401;SDS011;48440;51.224;22.506;2023-08-20T00:44:26;12.65;;;11.25;;
62401;SDS011;48440;51.224;22.506;2023-08-20T00:46:51;12.27;;;10.95;;
62401;SDS011;48440;51.224;22.506;2023-08-20T00:49:18;12.60;;;11.00;;
62401;SDS011;48440;51.224;22.506;2023-08-20T00:51:43;22.58;;;12.40;;
62401;SDS011;48440;51.224;22.506;2023-08-20T00:54:10;17.73;;;11.30;;
62401;SDS011;48440;51.224;22.506;2023-08-20T00:56:36;12.40;;;11.02;;
62401;SDS011;48440;51.224;22.506;2023-08-20T00:59:03;12.60;;;11.20;;
62401;SDS011;48440;51.224;22.506;2023-08-20T01:01:30;13.40;;;11.63;;
62401;SDS011;48440;51.224;22.506;2023-08-20T01:03:55;16.67;;;13.35;;
62401;SDS011;48440;51.224;22.506;2023-08-20T01:06:39;12.98;;;11.57;;
62401;SDS011;48440;51.224;22.506;2023-08-20T01:09:40;12.85;;;11.65;;
62401;SDS011;48440;51.224;22.506;2023-08-20T01:12:23;15.35;;;12.57;;
62401;SDS011;48440;51.224;22.506;2023-08-20T01:14:49;14.57;;;11.32;;
62401;SDS011;48440;51.224;22.506;2023-08-20T01:17:15;17.50;;;11.88;;
62401;SDS011;48440;51.224;22.506;2023-08-20T01:19:40;13.75;;;11.40;;
62401;SDS011;48440;51.224;22.506;2023-08-20T01:25:12;13.82;;;12.38;;
62401;SDS011;48440;51.224;22.506;2023-08-20T01:31:01;14.68;;;12.63;;
62401;SDS011;48440;51.224;22.506;2023-08-20T01:33:27;14.05;;;12.63;;
62401;SDS011;48440;51.224;22.506;2023-08-20T01:35:54;13.90;;;12.57;;
62401;SDS011;48440;51.224;22.506;2023-08-20T01:38:20;14.55;;;13.05;;
62401;SDS011;48440;51.224;22.506;2023-08-20T01:40:45;14.20;;;12.90;;
62401;SDS011;48440;51.224;22.506;2023-08-20T01:43:12;18.40;;;13.75;;
62401;SDS011;48440;51.224;22.506;2023-08-20T01:45:37;14.75;;;13.27;;
62401;SDS011;48440;51.224;22.506;2023-08-20T01:48:03;18.85;;;13.65;;
62401;SDS011;48440;51.224;22.506;2023-08-20T01:50:32;15.15;;;13.23;;
62401;SDS011;48440;51.224;22.506;2023-08-20T01:52:59;16.83;;;13.23;;
62401;SDS011;48440;51.224;22.506;2023-08-20T01:55:25;16.40;;;13.57;;
62401;SDS011;48440;51.224;22.506;2023-08-20T01:57:50;20.38;;;14.02;;
62401;SDS011;48440;51.224;22.506;2023-08-20T02:00:16;17.40;;;13.35;;
62401;SDS011;48440;51.224;22.506;2023-08-20T02:02:42;17.85;;;14.43;;
62401;SDS011;48440;51.224;22.506;2023-08-20T02:05:07;17.45;;;14.90;;
62401;SDS011;48440;51.224;22.506;2023-08-20T02:07:33;17.52;;;14.63;;
62401;SDS011;48440;51.224;22.506;2023-08-20T02:09:58;16.45;;;13.90;;
62401;SDS011;48440;51.224;22.506;2023-08-20T02:12:25;16.58;;;13.98;;
62401;SDS011;48440;51.224;22.506;2023-08-20T02:14:50;18.73;;;14.40;;
62401;SDS011;48440;51.224;22.506;2023-08-20T02:17:16;15.25;;;13.05;;
62401;SDS011;48440;51.224;22.506;2023-08-20T02:19:41;17.15;;;14.10;;
62401;SDS011;48440;51.224;22.506;2023-08-20T02:22:07;17.33;;;13.93;;
62401;SDS011;48440;51.224;22.506;2023-08-20T02:24:32;16.55;;;14.95;;
62401;SDS011;48440;51.224;22.506;2023-08-20T02:26:57;16.58;;;14.38;;
62401;SDS011;48440;51.224;22.506;2023-08-20T02:29:23;16.92;;;15.23;;
62401;SDS011;48440;51.224;22.506;2023-08-20T02:31:48;19.48;;;15.15;;
62401;SDS011;48440;51.224;22.506;2023-08-20T02:34:14;23.15;;;15.77;;
62401;SDS011;48440;51.224;22.506;2023-08-20T02:36:39;16.95;;;14.07;;
62401;SDS011;48440;51.224;22.506;2023-08-20T02:39:05;21.98;;;14.35;;
62401;SDS011;48440;51.224;22.506;2023-08-20T02:41:33;18.55;;;14.88;;
62401;SDS011;48440;51.224;22.506;2023-08-20T02:43:59;16.67;;;14.93;;
62401;SDS011;48440;51.224;22.506;2023-08-20T02:46:25;19.80;;;16.00;;
62401;SDS011;48440;51.224;22.506;2023-08-20T02:48:50;18.88;;;15.93;;
62401;SDS011;48440;51.224;22.506;2023-08-20T02:51:15;19.23;;;15.35;;
62401;SDS011;48440;51.224;22.506;2023-08-20T02:53:41;17.10;;;15.38;;
62401;SDS011;48440;51.224;22.506;2023-08-20T02:56:06;22.45;;;15.55;;
62401;SDS011;48440;51.224;22.506;2023-08-20T02:58:32;21.05;;;15.63;;
62401;SDS011;48440;51.224;22.506;2023-08-20T03:00:57;19.13;;;14.68;;
62401;SDS011;48440;51.224;22.506;2023-08-20T03:03:22;18.35;;;15.32;;
62401;SDS011;48440;51.224;22.506;2023-08-20T03:05:48;17.20;;;15.40;;
62401;SDS011;48440;51.224;22.506;2023-08-20T03:08:14;17.10;;;14.43;;
62401;SDS011;48440;51.224;22.506;2023-08-20T03:10:39;20.40;;;15.93;;
62401;SDS011;48440;51.224;22.506;2023-08-20T03:13:05;17.75;;;15.60;;
62401;SDS011;48440;51.224;22.506;2023-08-20T03:15:30;20.48;;;14.82;;
62401;SDS011;48440;51.224;22.506;2023-08-20T03:17:56;16.58;;;14.95;;
62401;SDS011;48440;51.224;22.506;2023-08-20T03:20:21;18.08;;;15.63;;
62401;SDS011;48440;51.224;22.506;2023-08-20T03:22:47;17.38;;;15.05;;
62401;SDS011;48440;51.224;22.506;2023-08-20T03:25:13;16.80;;;14.90;;
62401;SDS011;48440;51.224;22.506;2023-08-20T03:27:38;16.58;;;14.57;;
62401;SDS011;48440;51.224;22.506;2023-08-20T03:30:04;16.75;;;14.38;;
62401;SDS011;48440;51.224;22.506;2023-08-20T03:32:31;16.88;;;14.30;;
62401;SDS011;48440;51.224;22.506;2023-08-20T03:34:56;17.45;;;14.88;;
62401;SDS011;48440;51.224;22.506;2023-08-20T03:37:24;19.30;;;15.38;;
62401;SDS011;48440;51.224;22.506;2023-08-20T03:39:52;18.67;;;15.60;;
62401;SDS011;48440;51.224;22.506;2023-08-20T03:42:17;18.85;;;15.48;;
62401;SDS011;48440;51.224;22.506;2023-08-20T03:44:43;17.05;;;15.32;;
62401;SDS011;48440;51.224;22.506;2023-08-20T03:47:08;20.45;;;15.88;;
62401;SDS011;48440;51.224;22.506;2023-08-20T03:49:34;19.90;;;14.25;;
62401;SDS011;48440;51.224;22.506;2023-08-20T03:52:00;17.30;;;14.80;;
62401;SDS011;48440;51.224;22.506;2023-08-20T03:54:27;17.45;;;14.88;;
62401;SDS011;48440;51.224;22.506;2023-08-20T03:56:54;16.50;;;14.77;;
62401;SDS011;48440;51.224;22.506;2023-08-20T03:59:19;18.30;;;15.52;;
62401;SDS011;48440;51.224;22.506;2023-08-20T04:01:44;19.33;;;14.65;;
62401;SDS011;48440;51.224;22.506;2023-08-20T04:04:10;20.90;;;16.10;;
62401;SDS011;48440;51.224;22.506;2023-08-20T04:06:35;19.40;;;15.18;;
62401;SDS011;48440;51.224;22.506;2023-08-20T04:09:01;19.92;;;15.73;;
62401;SDS011;48440;51.224;22.506;2023-08-20T04:11:26;16.77;;;14.65;;
62401;SDS011;48440;51.224;22.506;2023-08-20T04:13:51;17.40;;;15.40;;
62401;SDS011;48440;51.224;22.506;2023-08-20T04:16:17;18.42;;;15.85;;
62401;SDS011;48440;51.224;22.506;2023-08-20T04:18:42;18.52;;;16.17;;
62401;SDS011;48440;51.224;22.506;2023-08-20T04:21:08;17.92;;;16.00;;
62401;SDS011;48440;51.224;22.506;2023-08-20T04:23:33;20.17;;;15.75;;
62401;SDS011;48440;51.224;22.506;2023-08-20T04:25:58;18.70;;;16.80;;
62401;SDS011;48440;51.224;22.506;2023-08-20T04:28:24;18.85;;;16.52;;
62401;SDS011;48440;51.224;22.506;2023-08-20T04:30:52;20.95;;;16.00;;
62401;SDS011;48440;51.224;22.506;2023-08-20T04:33:19;19.23;;;16.75;;
62401;SDS011;48440;51.224;22.506;2023-08-20T04:35:45;22.38;;;17.55;;
62401;SDS011;48440;51.224;22.506;2023-08-20T04:38:10;21.40;;;16.85;;
62401;SDS011;48440;51.224;22.506;2023-08-20T04:40:35;19.15;;;16.10;;
62401;SDS011;48440;51.224;22.506;2023-08-20T04:43:01;20.15;;;17.27;;
62401;SDS011;48440;51.224;22.506;2023-08-20T04:45:26;19.33;;;17.25;;
62401;SDS011;48440;51.224;22.506;2023-08-20T04:47:52;20.10;;;17.25;;
62401;SDS011;48440;51.224;22.506;2023-08-20T04:50:17;22.23;;;18.27;;
62401;SDS011;48440;51.224;22.506;2023-08-20T04:52:42;19.25;;;16.88;;
62401;SDS011;48440;51.224;22.506;2023-08-20T04:55:08;20.10;;;17.98;;
62401;SDS011;48440;51.224;22.506;2023-08-20T04:57:34;19.75;;;16.85;;
62401;SDS011;48440;51.224;22.506;2023-08-20T04:59:59;21.25;;;18.30;;
62401;SDS011;48440;51.224;22.506;2023-08-20T05:02:25;20.90;;;18.50;;
62401;SDS011;48440;51.224;22.506;2023-08-20T05:04:51;23.83;;;18.75;;
62401;SDS011;48440;51.224;22.506;2023-08-20T05:07:16;20.88;;;17.55;;
62401;SDS011;48440;51.224;22.506;2023-08-20T05:09:41;20.35;;;18.25;;
62401;SDS011;48440;51.224;22.506;2023-08-20T05:12:07;21.30;;;19.00;;
62401;SDS011;48440;51.224;22.506;2023-08-20T05:14:33;19.60;;;17.70;;
62401;SDS011;48440;51.224;22.506;2023-08-20T05:16:58;23.17;;;18.05;;
62401;SDS011;48440;51.224;22.506;2023-08-20T05:19:24;20.52;;;18.42;;
62401;SDS011;48440;51.224;22.506;2023-08-20T05:21:49;20.60;;;18.42;;
62401;SDS011;48440;51.224;22.506;2023-08-20T05:24:15;20.70;;;18.80;;
62401;SDS011;48440;51.224;22.506;2023-08-20T05:26:40;20.67;;;18.58;;
62401;SDS011;48440;51.224;22.506;2023-08-20T05:29:06;21.23;;;18.63;;
62401;SDS011;48440;51.224;22.506;2023-08-20T05:31:31;21.10;;;17.90;;
62401;SDS011;48440;51.224;22.506;2023-08-20T05:33:57;22.63;;;18.90;;
62401;SDS011;48440;51.224;22.506;2023-08-20T05:36:23;20.63;;;18.45;;
62401;SDS011;48440;51.224;22.506;2023-08-20T05:38:48;20.42;;;18.08;;
62401;SDS011;48440;51.224;22.506;2023-08-20T05:41:14;20.95;;;18.85;;
62401;SDS011;48440;51.224;22.506;2023-08-20T05:43:39;20.98;;;18.88;;
62401;SDS011;48440;51.224;22.506;2023-08-20T05:46:05;24.75;;;19.85;;
62401;SDS011;48440;51.224;22.506;2023-08-20T05:48:30;21.30;;;18.42;;
62401;SDS011;48440;51.224;22.506;2023-08-20T05:50:56;22.85;;;18.17;;
62401;SDS011;48440;51.224;22.506;2023-08-20T05:53:22;23.88;;;19.38;;
62401;SDS011;48440;51.224;22.506;2023-08-20T05:55:48;20.13;;;18.10;;
62401;SDS011;48440;51.224;22.506;2023-08-20T05:58:14;19.50;;;17.50;;
62401;SDS011;48440;51.224;22.506;2023-08-20T06:00:39;20.35;;;18.20;;
62401;SDS011;48440;51.224;22.506;2023-08-20T06:03:05;20.15;;;18.00;;
62401;SDS011;48440;51.224;22.506;2023-08-20T06:05:32;21.23;;;18.23;;
62401;SDS011;48440;51.224;22.506;2023-08-20T06:07:58;20.63;;;18.58;;
62401;SDS011;48440;51.224;22.506;2023-08-20T06:10:24;20.92;;;18.83;;
62401;SDS011;48440;51.224;22.506;2023-08-20T06:12:49;23.83;;;20.45;;
62401;SDS011;48440;51.224;22.506;2023-08-20T06:15:15;23.40;;;19.90;;
62401;SDS011;48440;51.224;22.506;2023-08-20T06:17:40;22.70;;;20.30;;
62401;SDS011;48440;51.224;22.506;2023-08-20T06:20:05;22.98;;;17.65;;
62401;SDS011;48440;51.224;22.506;2023-08-20T06:22:33;22.00;;;19.70;;
62401;SDS011;48440;51.224;22.506;2023-08-20T06:24:59;20.83;;;18.55;;
62401;SDS011;48440;51.224;22.506;2023-08-20T06:27:25;21.30;;;19.20;;
62401;SDS011;48440;51.224;22.506;2023-08-20T06:29:50;19.33;;;17.52;;
62401;SDS011;48440;51.224;22.506;2023-08-20T06:32:16;20.08;;;18.08;;
62401;SDS011;48440;51.224;22.506;2023-08-20T06:34:41;19.92;;;16.55;;
62401;SDS011;48440;51.224;22.506;2023-08-20T06:37:07;20.00;;;18.02;;
62401;SDS011;48440;51.224;22.506;2023-08-20T06:39:32;21.23;;;17.63;;
62401;SDS011;48440;51.224;22.506;2023-08-20T06:41:57;19.85;;;17.38;;
62401;SDS011;48440;51.224;22.506;2023-08-20T06:44:23;18.60;;;16.67;;
62401;SDS011;48440;51.224;22.506;2023-08-20T06:46:48;18.13;;;15.65;;
62401;SDS011;48440;51.224;22.506;2023-08-20T06:49:14;18.27;;;16.30;;
62401;SDS011;48440;51.224;22.506;2023-08-20T06:51:39;19.33;;;15.63;;
62401;SDS011;48440;51.224;22.506;2023-08-20T06:54:05;18.30;;;16.40;;
62401;SDS011;48440;51.224;22.506;2023-08-20T06:56:33;15.93;;;14.32;;
62401;SDS011;48440;51.224;22.506;2023-08-20T06:58:59;17.33;;;15.68;;
62401;SDS011;48440;51.224;22.506;2023-08-20T07:01:25;18.08;;;16.30;;
62401;SDS011;48440;51.224;22.506;2023-08-20T07:03:50;16.38;;;14.68;;
62401;SDS011;48440;51.224;22.506;2023-08-20T07:06:16;17.35;;;14.93;;
62401;SDS011;48440;51.224;22.506;2023-08-20T07:08:43;16.55;;;14.88;;
62401;SDS011;48440;51.224;22.506;2023-08-20T07:11:09;15.68;;;14.07;;
62401;SDS011;48440;51.224;22.506;2023-08-20T07:13:35;17.67;;;15.07;;
62401;SDS011;48440;51.224;22.506;2023-08-20T07:16:01;15.95;;;14.45;;
62401;SDS011;48440;51.224;22.506;2023-08-20T07:18:26;16.30;;;14.20;;
62401;SDS011;48440;51.224;22.506;2023-08-20T07:20:52;14.60;;;13.23;;
62401;SDS011;48440;51.224;22.506;2023-08-20T07:23:17;16.70;;;14.95;;
62401;SDS011;48440;51.224;22.506;2023-08-20T07:25:43;15.52;;;13.40;;
62401;SDS011;48440;51.224;22.506;2023-08-20T07:28:10;15.10;;;13.70;;
62401;SDS011;48440;51.224;22.506;2023-08-20T07:30:35;15.45;;;13.82;;
62401;SDS011;48440;51.224;22.506;2023-08-20T07:33:01;15.48;;;13.98;;
62401;SDS011;48440;51.224;22.506;2023-08-20T07:35:27;15.32;;;13.85;;
62401;SDS011;48440;51.224;22.506;2023-08-20T07:37:53;17.85;;;16.00;;
62401;SDS011;48440;51.224;22.506;2023-08-20T07:40:19;15.15;;;13.73;;
62401;SDS011;48440;51.224;22.506;2023-08-20T07:42:45;14.98;;;13.57;;
62401;SDS011;48440;51.224;22.506;2023-08-20T07:45:11;15.02;;;13.45;;
62401;SDS011;48440;51.224;22.506;2023-08-20T07:47:36;14.88;;;13.38;;
62401;SDS011;48440;51.224;22.506;2023-08-20T07:50:03;15.48;;;13.20;;
62401;SDS011;48440;51.224;22.506;2023-08-20T07:52:29;15.00;;;13.60;;
62401;SDS011;48440;51.224;22.506;2023-08-20T07:54:55;14.77;;;13.48;;
62401;SDS011;48440;51.224;22.506;2023-08-20T07:57:21;14.80;;;13.20;;
62401;SDS011;48440;51.224;22.506;2023-08-20T07:59:48;15.05;;;13.18;;
62401;SDS011;48440;51.224;22.506;2023-08-20T08:02:14;14.77;;;13.43;;
62401;SDS011;48440;51.224;22.506;2023-08-20T08:04:39;14.27;;;12.93;;
62401;SDS011;48440;51.224;22.506;2023-08-20T08:07:04;16.95;;;13.70;;
62401;SDS011;48440;51.224;22.506;2023-08-20T08:09:30;15.50;;;13.88;;
62401;SDS011;48440;51.224;22.506;2023-08-20T08:11:57;16.30;;;14.05;;
62401;SDS011;48440;51.224;22.506;2023-08-20T08:14:23;14.45;;;13.00;;
62401;SDS011;48440;51.224;22.506;2023-08-20T08:16:49;13.55;;;12.25;;
62401;SDS011;48440;51.224;22.506;2023-08-20T08:19:15;13.95;;;12.57;;
62401;SDS011;48440;51.224;22.506;2023-08-20T08:21:41;15.55;;;12.98;;
62401;SDS011;48440;51.224;22.506;2023-08-20T08:24:08;14.32;;;12.88;;
62401;SDS011;48440;51.224;22.506;2023-08-20T08:26:34;13.10;;;11.90;;
62401;SDS011;48440;51.224;22.506;2023-08-20T08:29:03;13.75;;;12.15;;
62401;SDS011;48440;51.224;22.506;2023-08-20T08:31:29;14.05;;;12.85;;
62401;SDS011;48440;51.224;22.506;2023-08-20T08:33:55;15.18;;;13.00;;
62401;SDS011;48440;51.224;22.506;2023-08-20T08:36:20;16.92;;;14.00;;
62401;SDS011;48440;51.224;22.506;2023-08-20T08:38:46;13.50;;;12.23;;
62401;SDS011;48440;51.224;22.506;2023-08-20T08:41:12;13.63;;;11.93;;
62401;SDS011;48440;51.224;22.506;2023-08-20T08:43:38;14.68;;;12.90;;
62401;SDS011;48440;51.224;22.506;2023-08-20T08:46:12;15.63;;;12.32;;
62401;SDS011;48440;51.224;22.506;2023-08-20T08:48:44;13.68;;;12.27;;
62401;SDS011;48440;51.224;22.506;2023-08-20T08:51:11;13.13;;;11.70;;
62401;SDS011;48440;51.224;22.506;2023-08-20T08:53:37;13.43;;;12.13;;
62401;SDS011;48440;51.224;22.506;2023-08-20T08:56:03;13.95;;;11.35;;
62401;SDS011;48440;51.224;22.506;2023-08-20T08:58:30;12.77;;;11.63;;
62401;SDS011;48440;51.224;22.506;2023-08-20T09:00:57;12.75;;;11.57;;
62401;SDS011;48440;51.224;22.506;2023-08-20T09:03:22;12.43;;;11.25;;
62401;SDS011;48440;51.224;22.506;2023-08-20T09:05:49;12.85;;;11.68;;
62401;SDS011;48440;51.224;22.506;2023-08-20T09:08:20;14.57;;;11.57;;
62401;SDS011;48440;51.224;22.506;2023-08-20T09:10:46;13.20;;;11.35;;
62401;SDS011;48440;51.224;22.506;2023-08-20T09:13:11;13.23;;;11.93;;
62401;SDS011;48440;51.224;22.506;2023-08-20T09:15:36;14.50;;;12.93;;
62401;SDS011;48440;51.224;22.506;2023-08-20T09:18:02;13.13;;;12.00;;
62401;SDS011;48440;51.224;22.506;2023-08-20T09:20:38;12.65;;;11.55;;
62401;SDS011;48440;51.224;22.506;2023-08-20T09:23:04;12.35;;;10.70;;
62401;SDS011;48440;51.224;22.506;2023-08-20T09:25:35;12.57;;;11.35;;
62401;SDS011;48440;51.224;22.506;2023-08-20T09:28:04;13.73;;;12.40;;
62401;SDS011;48440;51.224;22.506;2023-08-20T09:30:29;14.35;;;11.90;;
62401;SDS011;48440;51.224;22.506;2023-08-20T09:33:11;13.50;;;12.10;;
62401;SDS011;48440;51.224;22.506;2023-08-20T09:35:38;13.50;;;12.20;;
62401;SDS011;48440;51.224;22.506;2023-08-20T09:38:13;13.63;;;12.35;;
62401;SDS011;48440;51.224;22.506;2023-08-20T09:40:38;14.15;;;12.75;;
62401;SDS011;48440;51.224;22.506;2023-08-20T09:43:04;14.57;;;13.02;;
62401;SDS011;48440;51.224;22.506;2023-08-20T09:45:33;14.63;;;13.35;;
62401;SDS011;48440;51.224;22.506;2023-08-20T09:48:01;13.20;;;11.77;;
62401;SDS011;48440;51.224;22.506;2023-08-20T09:50:34;14.45;;;12.65;;
62401;SDS011;48440;51.224;22.506;2023-08-20T09:53:06;13.50;;;12.30;;
62401;SDS011;48440;51.224;22.506;2023-08-20T09:55:36;15.68;;;13.90;;
62401;SDS011;48440;51.224;22.506;2023-08-20T09:58:04;15.48;;;13.82;;
62401;SDS011;48440;51.224;22.506;2023-08-20T10:00:30;14.05;;;12.35;;
62401;SDS011;48440;51.224;22.506;2023-08-20T10:02:57;13.15;;;11.85;;
62401;SDS011;48440;51.224;22.506;2023-08-20T10:05:23;12.85;;;11.55;;
62401;SDS011;48440;51.224;22.506;2023-08-20T10:07:49;11.82;;;10.82;;
62401;SDS011;48440;51.224;22.506;2023-08-20T10:10:15;13.52;;;12.13;;
62401;SDS011;48440;51.224;22.506;2023-08-20T10:12:42;12.57;;;11.32;;
62401;SDS011;48440;51.224;22.506;2023-08-20T10:15:10;12.90;;;11.60;;
62401;SDS011;48440;51.224;22.506;2023-08-20T10:17:37;12.18;;;10.93;;
62401;SDS011;48440;51.224;22.506;2023-08-20T10:20:06;12.60;;;11.40;;
62401;SDS011;48440;51.224;22.506;2023-08-20T10:22:42;11.57;;;10.57;;
62401;SDS011;48440;51.224;22.506;2023-08-20T10:25:12;11.38;;;10.40;;
62401;SDS011;48440;51.224;22.506;2023-08-20T10:27:47;11.23;;;10.20;;
62401;SDS011;48440;51.224;22.506;2023-08-20T10:30:18;11.75;;;10.65;;
62401;SDS011;48440;51.224;22.506;2023-08-20T10:32:53;10.73;;;9.63;;
62401;SDS011;48440;51.224;22.506;2023-08-20T10:35:25;11.63;;;9.93;;
62401;SDS011;48440;51.224;22.506;2023-08-20T10:38:05;10.05;;;9.15;;
62401;SDS011;48440;51.224;22.506;2023-08-20T10:48:39;9.95;;;9.00;;
62401;SDS011;48440;51.224;22.506;2023-08-20T10:51:15;9.57;;;8.68;;
62401;SDS011;48440;51.224;22.506;2023-08-20T10:53:43;10.20;;;8.73;;
62401;SDS011;48440;51.224;22.506;2023-08-20T10:56:17;13.83;;;9.57;;
62401;SDS011;48440;51.224;22.506;2023-08-20T10:58:44;10.88;;;9.32;;
62401;SDS011;48440;51.224;22.506;2023-08-20T11:03:41;11.15;;;10.05;;
62401;SDS011;48440;51.224;22.506;2023-08-20T11:06:08;10.40;;;9.40;;
62401;SDS011;48440;51.224;22.506;2023-08-20T11:08:34;10.65;;;9.60;;
62401;SDS011;48440;51.224;22.506;2023-08-20T11:10:59;9.90;;;9.07;;
62401;SDS011;48440;51.224;22.506;2023-08-20T11:13:25;10.07;;;9.05;;
62401;SDS011;48440;51.224;22.506;2023-08-20T11:15:51;10.43;;;9.60;;
62401;SDS011;48440;51.224;22.506;2023-08-20T11:18:16;11.10;;;9.93;;
62401;SDS011;48440;51.224;22.506;2023-08-20T11:20:43;10.02;;;9.10;;
62401;SDS011;48440;51.224;22.506;2023-08-20T11:23:09;10.60;;;9.40;;
62401;SDS011;48440;51.224;22.506;2023-08-20T11:25:40;10.90;;;9.80;;
62401;SDS011;48440;51.224;22.506;2023-08-20T11:28:07;11.90;;;10.38;;
62401;SDS011;48440;51.224;22.506;2023-08-20T11:30:32;11.18;;;10.15;;
62401;SDS011;48440;51.224;22.506;2023-08-20T11:32:58;10.10;;;9.20;;
62401;SDS011;48440;51.224;22.506;2023-08-20T11:35:24;9.93;;;8.77;;
62401;SDS011;48440;51.224;22.506;2023-08-20T11:37:51;9.77;;;8.80;;
62401;SDS011;48440;51.224;22.506;2023-08-20T11:40:19;9.52;;;8.65;;
62401;SDS011;48440;51.224;22.506;2023-08-20T11:42:46;10.00;;;9.00;;
62401;SDS011;48440;51.224;22.506;2023-08-20T11:45:11;9.65;;;8.70;;
62401;SDS011;48440;51.224;22.506;2023-08-20T11:47:40;9.70;;;8.63;;
62401;SDS011;48440;51.224;22.506;2023-08-20T11:50:07;9.68;;;8.65;;
62401;SDS011;48440;51.224;22.506;2023-08-20T11:52:33;10.77;;;9.88;;
62401;SDS011;48440;51.224;22.506;2023-08-20T11:55:00;11.20;;;10.30;;
62401;SDS011;48440;51.224;22.506;2023-08-20T11:57:29;12.00;;;10.98;;
62401;SDS011;48440;51.224;22.506;2023-08-20T12:00:03;11.38;;;10.38;;
62401;SDS011;48440;51.224;22.506;2023-08-20T12:02:30;11.98;;;10.88;;
62401;SDS011;48440;51.224;22.506;2023-08-20T12:04:56;13.30;;;11.98;;
62401;SDS011;48440;51.224;22.506;2023-08-20T12:07:26;12.90;;;11.70;;
62401;SDS011;48440;51.224;22.506;2023-08-20T12:09:52;15.10;;;12.50;;
62401;SDS011;48440;51.224;22.506;2023-08-20T12:12:21;14.38;;;13.15;;
62401;SDS011;48440;51.224;22.506;2023-08-20T12:14:47;15.32;;;13.85;;
62401;SDS011;48440;51.224;22.506;2023-08-20T12:17:22;13.18;;;11.88;;
62401;SDS011;48440;51.224;22.506;2023-08-20T12:19:47;11.68;;;10.48;;
62401;SDS011;48440;51.224;22.506;2023-08-20T12:22:12;12.02;;;10.93;;
62401;SDS011;48440;51.224;22.506;2023-08-20T12:24:38;12.90;;;11.80;;
62401;SDS011;48440;51.224;22.506;2023-08-20T12:27:04;11.73;;;10.73;;
62401;SDS011;48440;51.224;22.506;2023-08-20T12:29:29;13.95;;;12.73;;
62401;SDS011;48440;51.224;22.506;2023-08-20T12:31:55;16.08;;;14.48;;
62401;SDS011;48440;51.224;22.506;2023-08-20T12:34:20;18.10;;;16.30;;
62401;SDS011;48440;51.224;22.506;2023-08-20T12:36:52;23.10;;;20.80;;
62401;SDS011;48440;51.224;22.506;2023-08-20T12:39:18;26.65;;;23.90;;
62401;SDS011;48440;51.224;22.506;2023-08-20T12:41:46;25.13;;;22.85;;
62401;SDS011;48440;51.224;22.506;2023-08-20T12:44:14;26.20;;;23.70;;
62401;SDS011;48440;51.224;22.506;2023-08-20T12:46:39;29.42;;;26.55;;
62401;SDS011;48440;51.224;22.506;2023-08-20T12:49:05;25.70;;;23.13;;
62401;SDS011;48440;51.224;22.506;2023-08-20T12:51:30;26.40;;;23.75;;
62401;SDS011;48440;51.224;22.506;2023-08-20T12:53:56;27.23;;;24.73;;
62401;SDS011;48440;51.224;22.506;2023-08-20T12:56:21;16.88;;;15.27;;
62401;SDS011;48440;51.224;22.506;2023-08-20T12:58:53;17.15;;;15.52;;
62401;SDS011;48440;51.224;22.506;2023-08-20T13:01:18;21.30;;;19.25;;
62401;SDS011;48440;51.224;22.506;2023-08-20T13:03:44;19.10;;;17.10;;
62401;SDS011;48440;51.224;22.506;2023-08-20T13:06:10;20.15;;;18.30;;
62401;SDS011;48440;51.224;22.506;2023-08-20T13:08:36;20.35;;;18.45;;
62401;SDS011;48440;51.224;22.506;2023-08-20T13:11:01;19.67;;;17.65;;
62401;SDS011;48440;51.224;22.506;2023-08-20T13:13:28;17.30;;;15.70;;
62401;SDS011;48440;51.224;22.506;2023-08-20T13:15:58;18.90;;;17.17;;
62401;SDS011;48440;51.224;22.506;2023-08-20T13:18:25;17.45;;;15.85;;
62401;SDS011;48440;51.224;22.506;2023-08-20T13:20:51;19.00;;;17.27;;
62401;SDS011;48440;51.224;22.506;2023-08-20T13:23:18;17.67;;;16.08;;
62401;SDS011;48440;51.224;22.506;2023-08-20T13:25:43;17.70;;;16.15;;
62401;SDS011;48440;51.224;22.506;2023-08-20T13:28:09;17.85;;;16.15;;
62401;SDS011;48440;51.224;22.506;2023-08-20T13:30:34;22.25;;;19.95;;
62401;SDS011;48440;51.224;22.506;2023-08-20T13:32:59;17.88;;;16.35;;
62401;SDS011;48440;51.224;22.506;2023-08-20T13:35:26;16.25;;;14.85;;
62401;SDS011;48440;51.224;22.506;2023-08-20T13:37:51;17.48;;;15.93;;
62401;SDS011;48440;51.224;22.506;2023-08-20T13:40:17;15.07;;;13.60;;
62401;SDS011;48440;51.224;22.506;2023-08-20T13:42:43;16.08;;;14.68;;
62401;SDS011;48440;51.224;22.506;2023-08-20T13:45:08;15.48;;;14.07;;
62401;SDS011;48440;51.224;22.506;2023-08-20T13:47:34;15.93;;;14.30;;
62401;SDS011;48440;51.224;22.506;2023-08-20T13:50:00;15.00;;;13.73;;
62401;SDS011;48440;51.224;22.506;2023-08-20T13:52:25;14.13;;;12.82;;
62401;SDS011;48440;51.224;22.506;2023-08-20T13:54:51;13.70;;;12.40;;
62401;SDS011;48440;51.224;22.506;2023-08-20T13:57:16;14.98;;;13.68;;
62401;SDS011;48440;51.224;22.506;2023-08-20T13:59:41;15.55;;;13.93;;
62401;SDS011;48440;51.224;22.506;2023-08-20T14:02:07;14.10;;;12.90;;
62401;SDS011;48440;51.224;22.506;2023-08-20T14:04:32;13.57;;;12.38;;
62401;SDS011;48440;51.224;22.506;2023-08-20T14:06:58;12.88;;;11.77;;
62401;SDS011;48440;51.224;22.506;2023-08-20T14:09:23;14.18;;;12.80;;
62401;SDS011;48440;51.224;22.506;2023-08-20T14:11:50;13.30;;;12.00;;
62401;SDS011;48440;51.224;22.506;2023-08-20T14:14:15;12.52;;;11.50;;
62401;SDS011;48440;51.224;22.506;2023-08-20T14:16:41;12.50;;;11.40;;
62401;SDS011;48440;51.224;22.506;2023-08-20T14:19:06;14.02;;;12.75;;
62401;SDS011;48440;51.224;22.506;2023-08-20T14:21:31;12.50;;;11.40;;
62401;SDS011;48440;51.224;22.506;2023-08-20T14:23:57;11.70;;;10.48;;